Amity, Missouri
Current Conditions -  °F | °C
As of 7:14 PM on Saturday 20 Dec 2014 (Local Time) from KSTJ Reporting Station
Overcast Overcast  
Wind Chill: 38°   Ceiling: 3000
Heat Index: 38°   Visibility: 7mi
Dew Point: 35°   Wind: 3mph
Humidity: 89%   Direction: 140°SE
Pressure: 30.11"   Gusts: NA
Location:  39.87°N, 94.44°W
Report Text: KSTJ 210114Z AUTO 14003KT 7SM OVC030 03/02 A3011 RMK AO2 T00330017
Loading
Personal Weather Stations






























Interactive Weather Map New forecast layout! Learn more

10-Day Weather Forecast

Advertisements
Track Severe Weather on mobile